Potosi, Bolivia
Current Conditions -  °F | °C
As of 2:00 PM on Thursday 27 Nov 2014 (Local Time) from SLSU Reporting Station
Scattered Clouds Scattered Clouds  
Wind Chill: 64°   Ceiling: Unl
Heat Index: 64°   Visibility: 6mi
Dew Point: 48°   Wind: 18mph
Humidity: 56%   Direction: 40°NE
Pressure: 30.36"   Gusts: NA
Location:  19.57°S, 65.75°W
Report Text: SLSU 271800Z 04016KT 9999 SCT023 FEW033CB SCT200 18/09 Q1028
Loading
Personal Weather Stations






























Interactive Weather Map New forecast layout! Learn more

10-Day Weather Forecast

Advertisements
Track Severe Weather on mobile